Alsen, ND

8:30 AM CST on November 23, 2014 (GMT -0600)
Langdon | Change Station
CLOSE
Current Station
Airport
Location: Langdon,
Elevation: 1608 ft
Nearby Weather Stations
Active Advisory: Wind Advisory

Elev 1608 ft 48.75 °N, 98.39 °W | Updated 15 minutes ago

Overcast
Overcast
32 °F
Feels Like 26 °F
N
7
Wind Variable Wind from WSW

Today
High -- | Low -- °F
--% Chance of Precip.
Yesterday
High -- | Low -- °F
Precip. -- in
7:54 AM 4:46 PM
New Moon, 1% visible
Pressure 29.34 in
Visibility 10.0 miles
Clouds Overcast 2500 ft
Windchill 26 °F
Dew Point 30 °F
Humidity 93%
Rainfall 0.00 in
Snow Depth Not available.
UV 0 out of 12
Pollen .10 out of 12
Air Quality Not available.
Flu Activity Not available.
METAR KD55 231415Z AUTO 24006KT 10SM OVC025 00/M01 A2934 RMK AO2

More Conditions Fewer Conditions

Pressure 29.34 in
Visibility 10.0 miles
Clouds Overcast 2500 ft
Windchill 26 °F
Dew Point 30 °F
Humidity 93%
Rainfall 0.00 in
Snow Depth Not available.
UV 0 out of 12
Pollen .10 out of 12
Air Quality Not available.
Flu Activity Not available.
METAR KD55 231415Z AUTO 24006KT 10SM OVC025 00/M01 A2934 RMK AO2

More Conditions Fewer Conditions

10-Day Weather Forecast

Almanac

Astronomy

Nov. 23, 2014 Rise Set
Actual Time
Civil Twilight
Nautical Twilight
Astronomical Twilight
Moon
Length of Visible Light
Length of Day
Tomorrow will be .
, % of the Moon is Illuminated

Today's Extremes

State Highs State Lows

Community

WunderPhotos

Upload Photos

1,773,077 photos uploaded!

WunderBlogs® & News

Nearby

Air Quality

  Air Quality AQ Index Pollutant
Not available.

Snow Depth

Station Depth Elevation

Earthquake Activity

City Distance Mag. Time & Date
Minimum magnitude displayed is 2.5.

Coastal Water Temperatures

Place Temperature

Nearby Weather Stations